Colorado Springs (COS/KCOS)

Map

Information

Location
Colorado Springs, CO
Local Time
06:51 / 6:51 am
GMT Time
12:51 / 12:51 pm
Gates
Unassigned
No FAA reported delays
METAR KCOS 161154Z 32017G26KT 4SM -SN OVC027 M01/M04 A2988 RMK AO2 PK WND 31026/1142 SLP143 P0001 60001 70005 T10061044 10006 21011 55000
TAF KCOS 161138Z 1612/1712 35015G25KT 3SM -SN BR SCT015 OVC025 FM161400 35015G25KT P6SM VCSH SCT025 BKN035 FM161800 34014KT P6SM VCSH SCT030 BKN040 FM170000 35012KT P6SM SCT050 BKN100 FM170600 36004KT P6SM BKN080 FM170900 36004KT P6SM VCSH OVC050
  • No charts available